sensor_id;sensor_type;location;lat;lon;timestamp;temperature;humidity
44833;DHT22;30569;51.252;9.830;2023-03-29T00:00:12;2.90;99.90
44833;DHT22;30569;51.252;9.830;2023-03-29T00:05:08;2.90;99.90
44833;DHT22;30569;51.252;9.830;2023-03-29T00:07:34;2.80;99.90
44833;DHT22;30569;51.252;9.830;2023-03-29T00:10:00;3.00;99.90
44833;DHT22;30569;51.252;9.830;2023-03-29T00:12:27;3.10;99.90
44833;DHT22;30569;51.252;9.830;2023-03-29T00:19:45;3.10;99.90
44833;DHT22;30569;51.252;9.830;2023-03-29T00:22:11;3.30;99.90
44833;DHT22;30569;51.252;9.830;2023-03-29T00:24:37;3.20;99.90
44833;DHT22;30569;51.252;9.830;2023-03-29T00:27:03;4.40;99.90
44833;DHT22;30569;51.252;9.830;2023-03-29T00:29:29;4.30;99.90
44833;DHT22;30569;51.252;9.830;2023-03-29T00:34:26;3.50;99.90
44833;DHT22;30569;51.252;9.830;2023-03-29T00:36:55;3.60;99.90
44833;DHT22;30569;51.252;9.830;2023-03-29T00:39:23;3.90;99.90
44833;DHT22;30569;51.252;9.830;2023-03-29T00:41:49;4.10;99.90
44833;DHT22;30569;51.252;9.830;2023-03-29T00:47:21;4.50;99.90
44833;DHT22;30569;51.252;9.830;2023-03-29T00:49:49;4.80;99.90
44833;DHT22;30569;51.252;9.830;2023-03-29T00:52:17;4.60;99.90
44833;DHT22;30569;51.252;9.830;2023-03-29T00:54:46;4.60;99.90
44833;DHT22;30569;51.252;9.830;2023-03-29T00:57:14;4.60;99.90
44833;DHT22;30569;51.252;9.830;2023-03-29T00:59:44;4.70;99.90
44833;DHT22;30569;51.252;9.830;2023-03-29T01:02:12;4.70;99.90
44833;DHT22;30569;51.252;9.830;2023-03-29T01:09:49;4.90;99.90
44833;DHT22;30569;51.252;9.830;2023-03-29T01:12:27;5.10;99.90
44833;DHT22;30569;51.252;9.830;2023-03-29T01:15:11;4.90;99.90
44833;DHT22;30569;51.252;9.830;2023-03-29T01:17:39;4.80;99.90
44833;DHT22;30569;51.252;9.830;2023-03-29T01:20:12;4.90;99.90
44833;DHT22;30569;51.252;9.830;2023-03-29T01:23:20;4.80;99.90
44833;DHT22;30569;51.252;9.830;2023-03-29T01:28:54;4.70;99.90
44833;DHT22;30569;51.252;9.830;2023-03-29T01:31:27;4.60;99.90
44833;DHT22;30569;51.252;9.830;2023-03-29T01:34:09;4.50;99.90
44833;DHT22;30569;51.252;9.830;2023-03-29T01:36:40;4.40;99.90
44833;DHT22;30569;51.252;9.830;2023-03-29T01:39:08;4.60;99.90
44833;DHT22;30569;51.252;9.830;2023-03-29T01:52:30;3.70;99.90
44833;DHT22;30569;51.252;9.830;2023-03-29T01:55:09;3.30;99.90
44833;DHT22;30569;51.252;9.830;2023-03-29T01:57:38;3.20;99.90
44833;DHT22;30569;51.252;9.830;2023-03-29T02:00:05;3.30;99.90
44833;DHT22;30569;51.252;9.830;2023-03-29T02:02:37;3.50;99.90
44833;DHT22;30569;51.252;9.830;2023-03-29T02:05:05;3.80;99.90
44833;DHT22;30569;51.252;9.830;2023-03-29T02:07:34;3.40;99.90
44833;DHT22;30569;51.252;9.830;2023-03-29T02:10:04;2.90;99.90
44833;DHT22;30569;51.252;9.830;2023-03-29T02:12:31;3.00;99.90
44833;DHT22;30569;51.252;9.830;2023-03-29T02:17:25;2.90;99.90
44833;DHT22;30569;51.252;9.830;2023-03-29T02:20:08;2.80;99.90
44833;DHT22;30569;51.252;9.830;2023-03-29T02:22:53;2.80;99.90
44833;DHT22;30569;51.252;9.830;2023-03-29T02:25:22;3.30;99.90
44833;DHT22;30569;51.252;9.830;2023-03-29T02:27:49;3.10;99.90
44833;DHT22;30569;51.252;9.830;2023-03-29T02:30:25;3.20;99.90
44833;DHT22;30569;51.252;9.830;2023-03-29T02:33:12;3.20;99.90
44833;DHT22;30569;51.252;9.830;2023-03-29T02:36:03;3.30;99.90
44833;DHT22;30569;51.252;9.830;2023-03-29T02:38:30;3.40;99.90
44833;DHT22;30569;51.252;9.830;2023-03-29T02:40:57;3.80;99.90
44833;DHT22;30569;51.252;9.830;2023-03-29T02:43:24;3.90;99.90
44833;DHT22;30569;51.252;9.830;2023-03-29T02:45:51;4.00;99.90
44833;DHT22;30569;51.252;9.830;2023-03-29T02:48:20;3.80;99.90
44833;DHT22;30569;51.252;9.830;2023-03-29T02:50:49;3.60;99.90
44833;DHT22;30569;51.252;9.830;2023-03-29T02:53:18;3.30;99.90
44833;DHT22;30569;51.252;9.830;2023-03-29T02:55:47;3.20;99.90
44833;DHT22;30569;51.252;9.830;2023-03-29T02:58:13;4.10;99.90
44833;DHT22;30569;51.252;9.830;2023-03-29T03:00:43;4.10;99.90
44833;DHT22;30569;51.252;9.830;2023-03-29T03:03:10;4.30;99.90
44833;DHT22;30569;51.252;9.830;2023-03-29T03:05:37;4.40;99.90
44833;DHT22;30569;51.252;9.830;2023-03-29T03:08:04;4.20;99.90
44833;DHT22;30569;51.252;9.830;2023-03-29T03:10:32;4.40;99.90
44833;DHT22;30569;51.252;9.830;2023-03-29T03:12:58;4.10;99.90
44833;DHT22;30569;51.252;9.830;2023-03-29T03:15:23;4.10;99.90
44833;DHT22;30569;51.252;9.830;2023-03-29T03:20:16;4.10;99.90
44833;DHT22;30569;51.252;9.830;2023-03-29T03:22:44;4.30;99.90
44833;DHT22;30569;51.252;9.830;2023-03-29T03:25:17;4.50;99.90
44833;DHT22;30569;51.252;9.830;2023-03-29T03:27:44;4.50;99.90
44833;DHT22;30569;51.252;9.830;2023-03-29T03:30:10;4.20;99.90
44833;DHT22;30569;51.252;9.830;2023-03-29T03:35:03;4.20;99.90
44833;DHT22;30569;51.252;9.830;2023-03-29T03:37:30;4.60;99.90
44833;DHT22;30569;51.252;9.830;2023-03-29T03:39:56;4.60;99.90
44833;DHT22;30569;51.252;9.830;2023-03-29T03:42:22;4.70;99.90
44833;DHT22;30569;51.252;9.830;2023-03-29T03:44:48;4.90;99.90
44833;DHT22;30569;51.252;9.830;2023-03-29T03:47:14;5.00;99.90
44833;DHT22;30569;51.252;9.830;2023-03-29T03:49:40;4.70;99.90
44833;DHT22;30569;51.252;9.830;2023-03-29T03:52:07;4.60;99.90
44833;DHT22;30569;51.252;9.830;2023-03-29T03:56:59;4.80;99.90
44833;DHT22;30569;51.252;9.830;2023-03-29T03:59:24;4.80;99.90
44833;DHT22;30569;51.252;9.830;2023-03-29T04:01:51;5.20;99.90
44833;DHT22;30569;51.252;9.830;2023-03-29T04:04:17;5.10;99.90
44833;DHT22;30569;51.252;9.830;2023-03-29T04:06:43;5.40;99.90
44833;DHT22;30569;51.252;9.830;2023-03-29T04:09:09;4.80;99.90
44833;DHT22;30569;51.252;9.830;2023-03-29T04:11:35;5.00;99.90
44833;DHT22;30569;51.252;9.830;2023-03-29T04:14:01;4.60;99.90
44833;DHT22;30569;51.252;9.830;2023-03-29T04:16:27;4.20;99.90
44833;DHT22;30569;51.252;9.830;2023-03-29T04:21:19;3.70;99.90
44833;DHT22;30569;51.252;9.830;2023-03-29T04:23:45;3.90;99.90
44833;DHT22;30569;51.252;9.830;2023-03-29T04:26:12;4.20;99.90
44833;DHT22;30569;51.252;9.830;2023-03-29T04:28:39;4.50;99.90
44833;DHT22;30569;51.252;9.830;2023-03-29T04:31:11;4.70;99.90
44833;DHT22;30569;51.252;9.830;2023-03-29T04:33:37;4.90;99.90
44833;DHT22;30569;51.252;9.830;2023-03-29T04:36:04;5.00;99.90
44833;DHT22;30569;51.252;9.830;2023-03-29T04:38:30;5.00;99.90
44833;DHT22;30569;51.252;9.830;2023-03-29T04:40:59;5.00;99.90
44833;DHT22;30569;51.252;9.830;2023-03-29T04:43:25;4.90;99.90
44833;DHT22;30569;51.252;9.830;2023-03-29T04:45:50;4.90;99.90
44833;DHT22;30569;51.252;9.830;2023-03-29T04:48:16;5.30;99.90
44833;DHT22;30569;51.252;9.830;2023-03-29T04:50:45;5.30;99.90
44833;DHT22;30569;51.252;9.830;2023-03-29T04:53:11;5.50;99.90
44833;DHT22;30569;51.252;9.830;2023-03-29T04:55:36;5.70;99.90
44833;DHT22;30569;51.252;9.830;2023-03-29T04:58:02;5.60;99.90
44833;DHT22;30569;51.252;9.830;2023-03-29T05:00:29;5.40;99.90
44833;DHT22;30569;51.252;9.830;2023-03-29T05:02:56;5.50;99.90
44833;DHT22;30569;51.252;9.830;2023-03-29T05:05:22;5.30;99.90
44833;DHT22;30569;51.252;9.830;2023-03-29T05:07:48;5.20;99.90
44833;DHT22;30569;51.252;9.830;2023-03-29T05:12:40;5.50;99.90
44833;DHT22;30569;51.252;9.830;2023-03-29T05:15:06;5.90;99.90
44833;DHT22;30569;51.252;9.830;2023-03-29T05:19:59;5.80;99.90
44833;DHT22;30569;51.252;9.830;2023-03-29T05:24:53;5.80;99.90
44833;DHT22;30569;51.252;9.830;2023-03-29T05:27:19;5.70;99.90
44833;DHT22;30569;51.252;9.830;2023-03-29T05:29:47;5.70;99.90
44833;DHT22;30569;51.252;9.830;2023-03-29T05:32:13;5.90;99.90
44833;DHT22;30569;51.252;9.830;2023-03-29T05:34:39;6.10;99.90
44833;DHT22;30569;51.252;9.830;2023-03-29T05:37:04;6.20;99.90
44833;DHT22;30569;51.252;9.830;2023-03-29T05:39:30;6.20;99.90
44833;DHT22;30569;51.252;9.830;2023-03-29T05:41:58;6.30;99.90
44833;DHT22;30569;51.252;9.830;2023-03-29T05:49:17;6.30;99.90
44833;DHT22;30569;51.252;9.830;2023-03-29T05:51:43;6.30;99.90
44833;DHT22;30569;51.252;9.830;2023-03-29T05:54:10;6.10;99.90
44833;DHT22;30569;51.252;9.830;2023-03-29T05:56:35;6.30;99.90
44833;DHT22;30569;51.252;9.830;2023-03-29T05:59:01;6.40;99.90
44833;DHT22;30569;51.252;9.830;2023-03-29T06:01:27;6.40;99.90
44833;DHT22;30569;51.252;9.830;2023-03-29T06:03:52;6.40;99.90
44833;DHT22;30569;51.252;9.830;2023-03-29T06:06:18;6.50;99.90
44833;DHT22;30569;51.252;9.830;2023-03-29T06:08:46;6.70;99.90
44833;DHT22;30569;51.252;9.830;2023-03-29T06:11:12;6.50;99.90
44833;DHT22;30569;51.252;9.830;2023-03-29T06:13:38;5.20;99.90
44833;DHT22;30569;51.252;9.830;2023-03-29T06:16:04;5.40;99.90
44833;DHT22;30569;51.252;9.830;2023-03-29T06:18:34;5.00;99.90
44833;DHT22;30569;51.252;9.830;2023-03-29T06:21:00;5.00;99.90
44833;DHT22;30569;51.252;9.830;2023-03-29T06:25:55;5.30;99.90
44833;DHT22;30569;51.252;9.830;2023-03-29T06:28:21;5.40;99.90
44833;DHT22;30569;51.252;9.830;2023-03-29T06:30:48;5.30;99.90
44833;DHT22;30569;51.252;9.830;2023-03-29T06:33:14;5.30;99.90
44833;DHT22;30569;51.252;9.830;2023-03-29T06:35:42;5.30;99.90
44833;DHT22;30569;51.252;9.830;2023-03-29T06:38:08;5.80;99.90
44833;DHT22;30569;51.252;9.830;2023-03-29T06:40:34;5.90;99.90
44833;DHT22;30569;51.252;9.830;2023-03-29T06:43:02;6.00;99.90
44833;DHT22;30569;51.252;9.830;2023-03-29T06:45:31;6.40;99.90
44833;DHT22;30569;51.252;9.830;2023-03-29T06:47:57;6.30;99.90
44833;DHT22;30569;51.252;9.830;2023-03-29T06:50:23;6.70;99.90
44833;DHT22;30569;51.252;9.830;2023-03-29T06:52:49;6.60;99.90
44833;DHT22;30569;51.252;9.830;2023-03-29T06:55:15;6.70;99.90
44833;DHT22;30569;51.252;9.830;2023-03-29T06:57:43;7.60;99.90
44833;DHT22;30569;51.252;9.830;2023-03-29T07:00:10;6.80;99.90
44833;DHT22;30569;51.252;9.830;2023-03-29T07:02:42;6.60;99.90
44833;DHT22;30569;51.252;9.830;2023-03-29T07:05:08;5.90;99.90
44833;DHT22;30569;51.252;9.830;2023-03-29T07:07:38;5.50;99.90
44833;DHT22;30569;51.252;9.830;2023-03-29T07:12:51;5.70;99.90
44833;DHT22;30569;51.252;9.830;2023-03-29T07:15:17;5.50;99.90
44833;DHT22;30569;51.252;9.830;2023-03-29T07:17:43;5.70;99.90
44833;DHT22;30569;51.252;9.830;2023-03-29T07:20:09;5.70;99.90
44833;DHT22;30569;51.252;9.830;2023-03-29T07:22:38;5.80;99.90
44833;DHT22;30569;51.252;9.830;2023-03-29T07:25:04;5.50;99.90
44833;DHT22;30569;51.252;9.830;2023-03-29T07:27:30;5.40;99.90
44833;DHT22;30569;51.252;9.830;2023-03-29T07:29:56;5.80;99.90
44833;DHT22;30569;51.252;9.830;2023-03-29T07:32:22;5.90;99.90
44833;DHT22;30569;51.252;9.830;2023-03-29T07:34:48;5.90;99.90
44833;DHT22;30569;51.252;9.830;2023-03-29T07:37:13;6.10;99.90
44833;DHT22;30569;51.252;9.830;2023-03-29T07:39:39;5.90;99.90
44833;DHT22;30569;51.252;9.830;2023-03-29T07:42:05;6.10;99.90
44833;DHT22;30569;51.252;9.830;2023-03-29T07:44:31;6.20;99.90
44833;DHT22;30569;51.252;9.830;2023-03-29T07:47:00;6.30;99.90
44833;DHT22;30569;51.252;9.830;2023-03-29T07:49:26;6.00;99.90
44833;DHT22;30569;51.252;9.830;2023-03-29T07:51:51;6.50;99.90
44833;DHT22;30569;51.252;9.830;2023-03-29T07:56:45;6.10;99.90
44833;DHT22;30569;51.252;9.830;2023-03-29T07:59:12;6.80;99.90
44833;DHT22;30569;51.252;9.830;2023-03-29T08:01:38;6.60;99.90
44833;DHT22;30569;51.252;9.830;2023-03-29T08:04:05;6.50;99.90
44833;DHT22;30569;51.252;9.830;2023-03-29T08:06:31;6.70;99.90
44833;DHT22;30569;51.252;9.830;2023-03-29T08:08:58;7.10;99.90
44833;DHT22;30569;51.252;9.830;2023-03-29T08:11:23;7.10;99.90
44833;DHT22;30569;51.252;9.830;2023-03-29T08:16:16;7.20;99.90
44833;DHT22;30569;51.252;9.830;2023-03-29T08:18:41;7.50;99.90
44833;DHT22;30569;51.252;9.830;2023-03-29T08:21:07;7.70;99.90
44833;DHT22;30569;51.252;9.830;2023-03-29T08:23:33;7.60;99.90
44833;DHT22;30569;51.252;9.830;2023-03-29T08:25:59;7.30;99.90
44833;DHT22;30569;51.252;9.830;2023-03-29T08:28:24;7.50;99.90
44833;DHT22;30569;51.252;9.830;2023-03-29T08:30:50;7.30;99.90
44833;DHT22;30569;51.252;9.830;2023-03-29T08:38:07;8.90;99.90
44833;DHT22;30569;51.252;9.830;2023-03-29T08:40:33;8.80;99.90
44833;DHT22;30569;51.252;9.830;2023-03-29T08:45:54;8.40;99.90
44833;DHT22;30569;51.252;9.830;2023-03-29T08:48:26;8.00;99.90
44833;DHT22;30569;51.252;9.830;2023-03-29T08:50:57;8.00;99.90
44833;DHT22;30569;51.252;9.830;2023-03-29T08:53:40;8.10;99.90
44833;DHT22;30569;51.252;9.830;2023-03-29T08:56:12;7.90;99.90
44833;DHT22;30569;51.252;9.830;2023-03-29T08:58:40;7.80;99.90
44833;DHT22;30569;51.252;9.830;2023-03-29T09:01:07;7.80;99.90
44833;DHT22;30569;51.252;9.830;2023-03-29T09:03:44;8.90;99.90
44833;DHT22;30569;51.252;9.830;2023-03-29T09:06:12;8.70;99.90
44833;DHT22;30569;51.252;9.830;2023-03-29T09:08:50;8.70;99.90
44833;DHT22;30569;51.252;9.830;2023-03-29T09:11:41;9.00;99.90
44833;DHT22;30569;51.252;9.830;2023-03-29T09:15:20;9.90;99.90
44833;DHT22;30569;51.252;9.830;2023-03-29T09:23:22;8.80;99.90
44833;DHT22;30569;51.252;9.830;2023-03-29T09:26:15;8.20;99.90
44833;DHT22;30569;51.252;9.830;2023-03-29T09:31:44;8.00;99.90
44833;DHT22;30569;51.252;9.830;2023-03-29T09:34:22;8.30;99.90
44833;DHT22;30569;51.252;9.830;2023-03-29T09:39:18;8.00;99.90
44833;DHT22;30569;51.252;9.830;2023-03-29T09:42:02;8.10;99.90
44833;DHT22;30569;51.252;9.830;2023-03-29T09:44:36;8.20;99.90
44833;DHT22;30569;51.252;9.830;2023-03-29T09:49:46;8.30;99.90
44833;DHT22;30569;51.252;9.830;2023-03-29T09:52:15;8.40;99.90
44833;DHT22;30569;51.252;9.830;2023-03-29T09:54:41;8.30;99.90
44833;DHT22;30569;51.252;9.830;2023-03-29T09:57:18;9.70;99.90
44833;DHT22;30569;51.252;9.830;2023-03-29T09:59:49;9.50;99.90
44833;DHT22;30569;51.252;9.830;2023-03-29T10:02:18;8.70;99.90
44833;DHT22;30569;51.252;9.830;2023-03-29T10:04:43;8.60;99.90
44833;DHT22;30569;51.252;9.830;2023-03-29T10:07:17;8.40;99.90
44833;DHT22;30569;51.252;9.830;2023-03-29T10:09:44;8.00;99.90
44833;DHT22;30569;51.252;9.830;2023-03-29T10:12:10;8.00;99.90
44833;DHT22;30569;51.252;9.830;2023-03-29T10:14:51;7.90;99.90
44833;DHT22;30569;51.252;9.830;2023-03-29T10:17:20;8.10;99.90
44833;DHT22;30569;51.252;9.830;2023-03-29T10:19:54;8.20;99.90
44833;DHT22;30569;51.252;9.830;2023-03-29T10:22:25;8.50;99.90
44833;DHT22;30569;51.252;9.830;2023-03-29T10:24:53;8.80;99.90
44833;DHT22;30569;51.252;9.830;2023-03-29T10:27:21;9.00;99.90
44833;DHT22;30569;51.252;9.830;2023-03-29T10:29:50;8.90;99.90
44833;DHT22;30569;51.252;9.830;2023-03-29T10:32:25;9.10;99.90
44833;DHT22;30569;51.252;9.830;2023-03-29T10:34:53;9.30;99.90
44833;DHT22;30569;51.252;9.830;2023-03-29T10:39:48;9.80;99.90
44833;DHT22;30569;51.252;9.830;2023-03-29T10:42:16;9.80;99.90
44833;DHT22;30569;51.252;9.830;2023-03-29T10:47:19;11.00;99.90
44833;DHT22;30569;51.252;9.830;2023-03-29T10:49:52;10.90;99.90
44833;DHT22;30569;51.252;9.830;2023-03-29T10:52:19;10.90;99.90
44833;DHT22;30569;51.252;9.830;2023-03-29T10:54:48;10.50;99.90
44833;DHT22;30569;51.252;9.830;2023-03-29T10:57:27;10.60;99.90
44833;DHT22;30569;51.252;9.830;2023-03-29T11:00:15;10.40;99.90
44833;DHT22;30569;51.252;9.830;2023-03-29T11:03:03;10.30;99.90
44833;DHT22;30569;51.252;9.830;2023-03-29T11:05:43;10.60;99.90
44833;DHT22;30569;51.252;9.830;2023-03-29T11:08:35;10.90;99.90
44833;DHT22;30569;51.252;9.830;2023-03-29T11:16:20;10.80;99.90
44833;DHT22;30569;51.252;9.830;2023-03-29T11:19:14;10.60;99.90
44833;DHT22;30569;51.252;9.830;2023-03-29T11:33:13;10.00;99.90
44833;DHT22;30569;51.252;9.830;2023-03-29T11:38:18;10.00;99.90
44833;DHT22;30569;51.252;9.830;2023-03-29T11:41:27;10.00;99.90
44833;DHT22;30569;51.252;9.830;2023-03-29T11:44:19;9.90;99.90
44833;DHT22;30569;51.252;9.830;2023-03-29T11:47:02;10.00;99.90
44833;DHT22;30569;51.252;9.830;2023-03-29T11:49:39;10.20;99.90
44833;DHT22;30569;51.252;9.830;2023-03-29T11:54:56;9.80;99.90
44833;DHT22;30569;51.252;9.830;2023-03-29T11:57:37;9.90;99.90
44833;DHT22;30569;51.252;9.830;2023-03-29T12:00:19;9.90;99.90
44833;DHT22;30569;51.252;9.830;2023-03-29T12:02:52;10.20;99.90
44833;DHT22;30569;51.252;9.830;2023-03-29T12:05:41;10.90;99.90
44833;DHT22;30569;51.252;9.830;2023-03-29T12:10:50;11.30;99.90
44833;DHT22;30569;51.252;9.830;2023-03-29T12:13:25;11.20;99.90
44833;DHT22;30569;51.252;9.830;2023-03-29T12:18:26;10.80;99.90
44833;DHT22;30569;51.252;9.830;2023-03-29T12:21:01;10.60;99.90
44833;DHT22;30569;51.252;9.830;2023-03-29T12:23:31;10.60;99.90
44833;DHT22;30569;51.252;9.830;2023-03-29T12:34:25;11.30;99.90
44833;DHT22;30569;51.252;9.830;2023-03-29T12:39:42;11.10;99.90
44833;DHT22;30569;51.252;9.830;2023-03-29T12:42:20;11.30;99.90
44833;DHT22;30569;51.252;9.830;2023-03-29T12:44:55;11.50;99.90
44833;DHT22;30569;51.252;9.830;2023-03-29T12:47:24;11.30;99.90
44833;DHT22;30569;51.252;9.830;2023-03-29T12:49:54;11.20;99.90
44833;DHT22;30569;51.252;9.830;2023-03-29T12:52:30;11.40;99.90
44833;DHT22;30569;51.252;9.830;2023-03-29T12:54:59;11.30;99.90
44833;DHT22;30569;51.252;9.830;2023-03-29T12:57:43;11.10;99.90
44833;DHT22;30569;51.252;9.830;2023-03-29T13:00:29;11.10;99.90
44833;DHT22;30569;51.252;9.830;2023-03-29T13:03:17;11.10;99.90
44833;DHT22;30569;51.252;9.830;2023-03-29T13:05:44;11.20;99.90
44833;DHT22;30569;51.252;9.830;2023-03-29T13:08:32;11.30;99.90
44833;DHT22;30569;51.252;9.830;2023-03-29T13:10:58;11.50;99.90
44833;DHT22;30569;51.252;9.830;2023-03-29T13:13:27;11.50;99.90
44833;DHT22;30569;51.252;9.830;2023-03-29T13:20:01;11.60;99.90
44833;DHT22;30569;51.252;9.830;2023-03-29T13:24:56;12.20;99.90
44833;DHT22;30569;51.252;9.830;2023-03-29T13:30:54;12.20;99.90
44833;DHT22;30569;51.252;9.830;2023-03-29T13:38:46;12.80;99.90
44833;DHT22;30569;51.252;9.830;2023-03-29T13:44:39;12.70;99.90
44833;DHT22;30569;51.252;9.830;2023-03-29T13:50:04;13.10;99.90
44833;DHT22;30569;51.252;9.830;2023-03-29T13:52:40;13.00;99.90
44833;DHT22;30569;51.252;9.830;2023-03-29T13:55:12;12.70;99.90
44833;DHT22;30569;51.252;9.830;2023-03-29T13:57:43;12.40;99.90
44833;DHT22;30569;51.252;9.830;2023-03-29T14:00:18;12.30;99.90
44833;DHT22;30569;51.252;9.830;2023-03-29T14:05:21;12.10;99.90
44833;DHT22;30569;51.252;9.830;2023-03-29T14:07:52;12.00;99.90
44833;DHT22;30569;51.252;9.830;2023-03-29T14:10:23;12.10;99.90
44833;DHT22;30569;51.252;9.830;2023-03-29T14:12:50;12.10;99.90
44833;DHT22;30569;51.252;9.830;2023-03-29T14:15:26;12.10;99.90
44833;DHT22;30569;51.252;9.830;2023-03-29T14:18:00;12.20;99.90
44833;DHT22;30569;51.252;9.830;2023-03-29T14:22:52;12.40;99.90
44833;DHT22;30569;51.252;9.830;2023-03-29T14:25:19;12.80;99.90
44833;DHT22;30569;51.252;9.830;2023-03-29T14:27:45;12.60;99.90
44833;DHT22;30569;51.252;9.830;2023-03-29T14:32:48;12.30;99.90
44833;DHT22;30569;51.252;9.830;2023-03-29T14:40:17;12.10;99.90
44833;DHT22;30569;51.252;9.830;2023-03-29T14:42:44;12.00;99.90
44833;DHT22;30569;51.252;9.830;2023-03-29T14:45:12;12.00;99.90
44833;DHT22;30569;51.252;9.830;2023-03-29T14:50:07;12.10;99.90
44833;DHT22;30569;51.252;9.830;2023-03-29T14:52:37;12.20;99.90
44833;DHT22;30569;51.252;9.830;2023-03-29T14:55:02;12.20;99.90
44833;DHT22;30569;51.252;9.830;2023-03-29T14:57:33;12.00;99.90
44833;DHT22;30569;51.252;9.830;2023-03-29T15:00:11;12.20;99.90
44833;DHT22;30569;51.252;9.830;2023-03-29T15:02:48;11.80;99.90
44833;DHT22;30569;51.252;9.830;2023-03-29T15:05:34;12.10;99.90
44833;DHT22;30569;51.252;9.830;2023-03-29T15:08:01;12.00;99.90
44833;DHT22;30569;51.252;9.830;2023-03-29T15:10:30;12.00;99.90
44833;DHT22;30569;51.252;9.830;2023-03-29T15:20:25;12.20;99.90
44833;DHT22;30569;51.252;9.830;2023-03-29T15:23:06;12.20;99.90
44833;DHT22;30569;51.252;9.830;2023-03-29T15:25:37;12.40;99.90
44833;DHT22;30569;51.252;9.830;2023-03-29T15:28:03;12.40;99.90
44833;DHT22;30569;51.252;9.830;2023-03-29T15:30:35;12.40;99.90
44833;DHT22;30569;51.252;9.830;2023-03-29T15:33:19;12.30;99.90
44833;DHT22;30569;51.252;9.830;2023-03-29T15:35:50;12.50;99.90
44833;DHT22;30569;51.252;9.830;2023-03-29T15:38:17;12.40;99.90
44833;DHT22;30569;51.252;9.830;2023-03-29T15:40:44;12.30;99.90
44833;DHT22;30569;51.252;9.830;2023-03-29T15:48:19;12.80;99.90
44833;DHT22;30569;51.252;9.830;2023-03-29T15:50:44;13.00;99.90
44833;DHT22;30569;51.252;9.830;2023-03-29T15:53:11;13.10;99.90
44833;DHT22;30569;51.252;9.830;2023-03-29T15:55:44;13.00;99.90
44833;DHT22;30569;51.252;9.830;2023-03-29T15:58:16;12.40;99.90
44833;DHT22;30569;51.252;9.830;2023-03-29T16:00:48;13.00;99.90
44833;DHT22;30569;51.252;9.830;2023-03-29T16:03:15;12.10;99.90
44833;DHT22;30569;51.252;9.830;2023-03-29T16:05:44;11.80;99.90
44833;DHT22;30569;51.252;9.830;2023-03-29T16:08:11;11.70;99.90
44833;DHT22;30569;51.252;9.830;2023-03-29T16:15:31;11.70;99.90
44833;DHT22;30569;51.252;9.830;2023-03-29T16:20:24;11.60;99.90
44833;DHT22;30569;51.252;9.830;2023-03-29T16:25:18;11.50;99.90
44833;DHT22;30569;51.252;9.830;2023-03-29T16:27:47;11.50;99.90
44833;DHT22;30569;51.252;9.830;2023-03-29T16:30:14;11.40;99.90
44833;DHT22;30569;51.252;9.830;2023-03-29T16:32:40;11.40;99.90
44833;DHT22;30569;51.252;9.830;2023-03-29T16:35:29;11.60;99.90
44833;DHT22;30569;51.252;9.830;2023-03-29T16:37:55;11.60;99.90
44833;DHT22;30569;51.252;9.830;2023-03-29T16:40:21;11.60;99.90
44833;DHT22;30569;51.252;9.830;2023-03-29T16:45:14;11.50;99.90
44833;DHT22;30569;51.252;9.830;2023-03-29T16:47:40;11.50;99.90
44833;DHT22;30569;51.252;9.830;2023-03-29T16:50:16;11.40;99.90
44833;DHT22;30569;51.252;9.830;2023-03-29T16:52:43;11.40;99.90
44833;DHT22;30569;51.252;9.830;2023-03-29T16:55:11;11.30;99.90
44833;DHT22;30569;51.252;9.830;2023-03-29T16:57:38;11.30;99.90
44833;DHT22;30569;51.252;9.830;2023-03-29T17:00:05;11.20;99.90
44833;DHT22;30569;51.252;9.830;2023-03-29T17:04:57;11.20;99.90
44833;DHT22;30569;51.252;9.830;2023-03-29T17:09:50;11.20;99.90
44833;DHT22;30569;51.252;9.830;2023-03-29T17:14:42;11.20;99.90
44833;DHT22;30569;51.252;9.830;2023-03-29T17:26:51;12.40;99.90
44833;DHT22;30569;51.252;9.830;2023-03-29T17:34:13;12.80;99.90
44833;DHT22;30569;51.252;9.830;2023-03-29T17:36:39;12.70;99.90
44833;DHT22;30569;51.252;9.830;2023-03-29T17:43:57;12.40;99.90
44833;DHT22;30569;51.252;9.830;2023-03-29T17:51:17;12.90;99.90
44833;DHT22;30569;51.252;9.830;2023-03-29T18:01:08;12.80;99.90
44833;DHT22;30569;51.252;9.830;2023-03-29T18:03:34;12.70;99.90
44833;DHT22;30569;51.252;9.830;2023-03-29T18:05:59;12.60;99.90
44833;DHT22;30569;51.252;9.830;2023-03-29T18:08:25;12.60;99.90
44833;DHT22;30569;51.252;9.830;2023-03-29T18:10:50;12.60;99.90
44833;DHT22;30569;51.252;9.830;2023-03-29T18:23:02;11.80;99.90
44833;DHT22;30569;51.252;9.830;2023-03-29T18:27:54;12.00;99.90
44833;DHT22;30569;51.252;9.830;2023-03-29T18:30:19;12.00;99.90
44833;DHT22;30569;51.252;9.830;2023-03-29T18:35:12;12.10;99.90
44833;DHT22;30569;51.252;9.830;2023-03-29T18:40:04;11.70;99.90
44833;DHT22;30569;51.252;9.830;2023-03-29T18:59:35;12.10;99.90
44833;DHT22;30569;51.252;9.830;2023-03-29T19:06:54;12.10;99.90
44833;DHT22;30569;51.252;9.830;2023-03-29T19:19:10;11.40;99.90
44833;DHT22;30569;51.252;9.830;2023-03-29T19:24:03;11.60;99.90
44833;DHT22;30569;51.252;9.830;2023-03-29T19:33:49;11.70;99.90
44833;DHT22;30569;51.252;9.830;2023-03-29T19:41:07;11.70;99.90
44833;DHT22;30569;51.252;9.830;2023-03-29T19:43:34;11.70;99.90
44833;DHT22;30569;51.252;9.830;2023-03-29T19:46:06;11.60;99.90
44833;DHT22;30569;51.252;9.830;2023-03-29T19:51:01;11.50;99.90
44833;DHT22;30569;51.252;9.830;2023-03-29T19:53:30;11.00;99.90
44833;DHT22;30569;51.252;9.830;2023-03-29T19:55:57;10.90;99.90
44833;DHT22;30569;51.252;9.830;2023-03-29T20:03:19;11.60;99.90
44833;DHT22;30569;51.252;9.830;2023-03-29T20:05:46;11.60;99.90
44833;DHT22;30569;51.252;9.830;2023-03-29T20:25:22;11.10;99.90
44833;DHT22;30569;51.252;9.830;2023-03-29T20:35:08;11.70;99.90
44833;DHT22;30569;51.252;9.830;2023-03-29T20:40:01;11.60;99.90
44833;DHT22;30569;51.252;9.830;2023-03-29T20:42:28;11.50;99.90
44833;DHT22;30569;51.252;9.830;2023-03-29T20:47:21;11.40;99.90
44833;DHT22;30569;51.252;9.830;2023-03-29T20:49:47;11.00;99.90
44833;DHT22;30569;51.252;9.830;2023-03-29T20:52:19;11.30;99.90
44833;DHT22;30569;51.252;9.830;2023-03-29T20:54:45;11.80;99.90
44833;DHT22;30569;51.252;9.830;2023-03-29T20:57:16;12.10;99.90
44833;DHT22;30569;51.252;9.830;2023-03-29T20:59:44;12.10;99.90
44833;DHT22;30569;51.252;9.830;2023-03-29T21:02:15;12.60;99.90
44833;DHT22;30569;51.252;9.830;2023-03-29T21:04:42;12.50;99.90
44833;DHT22;30569;51.252;9.830;2023-03-29T21:07:08;12.50;99.90
44833;DHT22;30569;51.252;9.830;2023-03-29T21:09:34;12.30;99.90
44833;DHT22;30569;51.252;9.830;2023-03-29T21:12:00;12.50;99.90
44833;DHT22;30569;51.252;9.830;2023-03-29T21:19:19;12.40;99.90
44833;DHT22;30569;51.252;9.830;2023-03-29T21:21:45;12.40;99.90
44833;DHT22;30569;51.252;9.830;2023-03-29T21:26:39;12.70;99.90
44833;DHT22;30569;51.252;9.830;2023-03-29T21:29:05;12.80;99.90
44833;DHT22;30569;51.252;9.830;2023-03-29T21:31:31;12.90;99.90
44833;DHT22;30569;51.252;9.830;2023-03-29T21:33:57;14.00;99.90